Time;durP1;ratioP1;P1;durP2;ratioP2;P2;SDS_P1;SDS_P2;PMS_P1;PMS_P2;Temp;Humidity;BMP_temperature;BMP_pressure;BME280_temperature;BME280_humidity;BME280_pressure;Samples;Min_cycle;Max_cycle;Signal;HPM_P1;HPM_P2
2023/05/16 00:01:28;;;;;;;;;;;10.30;99.90;;;;;;5093421;28;20135;-74
2023/05/16 00:03:55;;;;;;;16.05;3.15;;;10.30;99.90;;;;;;5078711;28;19920;-74
2023/05/16 00:06:21;;;;;;;15.07;3.30;;;10.20;99.90;;;;;;5085662;28;20160;-75
2023/05/16 00:08:47;;;;;;;;;;;10.10;99.90;;;;;;5092034;28;20051;-74
2023/05/16 00:11:13;;;;;;;15.20;3.22;;;10.10;99.90;;;;;;5111077;28;19966;-74
2023/05/16 00:13:41;;;;;;;11.88;2.95;;;10.10;99.90;;;;;;5071487;28;20055;-74
2023/05/16 00:16:07;;;;;;;14.95;2.95;;;10.00;99.90;;;;;;5085634;28;20119;-74
2023/05/16 00:18:36;;;;;;;18.88;3.63;;;10.00;99.90;;;;;;5092774;28;20126;-75
2023/05/16 00:21:03;;;;;;;15.57;3.00;;;10.00;99.90;;;;;;5091901;28;20052;-74
2023/05/16 00:23:29;;;;;;;15.15;2.63;;;9.90;99.90;;;;;;5072728;28;20044;-74
2023/05/16 00:25:55;;;;;;;16.58;3.15;;;9.80;99.90;;;;;;5088888;28;20055;-74
2023/05/16 00:28:21;;;;;;;19.55;3.08;;;9.80;99.90;;;;;;5097540;28;20065;-74
2023/05/16 00:30:47;;;;;;;23.15;3.63;;;9.70;99.90;;;;;;5091316;28;20136;-75
2023/05/16 00:33:13;;;;;;;;;;;9.70;99.90;;;;;;5114169;27;20075;-74
2023/05/16 00:35:38;;;;;;;16.63;2.92;;;9.70;99.90;;;;;;5086390;28;20027;-74
2023/05/16 00:38:05;;;;;;;21.48;3.05;;;9.70;99.90;;;;;;5090199;28;20052;-74
2023/05/16 00:40:30;;;;;;;;;;;9.60;99.90;;;;;;5091221;28;20089;-74
2023/05/16 00:42:56;;;;;;;15.40;2.75;;;9.60;99.90;;;;;;5079212;28;20040;-74
2023/05/16 00:45:22;;;;;;;23.17;2.90;;;9.60;99.90;;;;;;5052571;28;20087;-74
2023/05/16 00:47:48;;;;;;;17.65;3.20;;;9.50;99.90;;;;;;5077148;28;20044;-74
2023/05/16 00:50:14;;;;;;;16.50;2.90;;;9.50;99.90;;;;;;5087939;28;20052;-74
2023/05/16 00:52:40;;;;;;;14.77;3.35;;;9.50;99.90;;;;;;5090382;28;20050;-74
2023/05/16 00:55:06;;;;;;;20.23;2.90;;;9.50;99.90;;;;;;5088480;28;20073;-74
2023/05/16 00:57:32;;;;;;;22.42;3.47;;;9.40;99.90;;;;;;5089366;28;20481;-74
2023/05/16 00:59:58;;;;;;;17.50;2.95;;;9.40;99.90;;;;;;5089327;28;20058;-74
2023/05/16 01:02:27;;;;;;;14.60;2.90;;;9.40;99.90;;;;;;5086016;28;20374;-74
2023/05/16 01:04:53;;;;;;;13.27;2.45;;;9.30;99.90;;;;;;5080309;28;20071;-74
2023/05/16 01:07:19;;;;;;;17.88;2.88;;;9.30;99.90;;;;;;5079666;28;20052;-74
2023/05/16 01:09:45;;;;;;;17.23;3.15;;;9.30;99.90;;;;;;5088838;28;20483;-74
2023/05/16 01:12:27;;;;;;;23.17;3.13;;;9.30;99.90;;;;;;5087600;28;20051;-74
2023/05/16 01:15:06;;;;;;;16.65;2.75;;;9.20;99.90;;;;;;5067808;28;20051;-74
2023/05/16 01:17:47;;;;;;;16.50;2.78;;;9.20;99.90;;;;;;5068606;28;20059;-70
2023/05/16 01:20:35;;;;;;;14.85;2.40;;;9.20;99.90;;;;;;5067251;28;20392;-74
2023/05/16 01:23:23;;;;;;;24.55;2.60;;;9.10;99.90;;;;;;5068174;28;20052;-73
2023/05/16 01:26:10;;;;;;;19.73;2.70;;;9.10;99.90;;;;;;5070508;28;20381;-74
2023/05/16 01:28:36;;;;;;;;;;;9.10;99.90;;;;;;5068626;28;20088;-74
2023/05/16 01:31:02;;;;;;;15.02;2.97;;;9.00;99.90;;;;;;5051928;28;19920;-74
2023/05/16 01:33:28;;;;;;;15.60;4.18;;;8.90;99.90;;;;;;5061806;28;20074;-74
2023/05/16 01:36:04;;;;;;;14.75;2.47;;;8.90;99.90;;;;;;5088634;28;20048;-74
2023/05/16 01:38:38;;;;;;;15.35;3.15;;;8.90;99.90;;;;;;5084752;28;20115;-74
2023/05/16 01:41:20;;;;;;;16.33;2.78;;;8.90;99.90;;;;;;5068648;28;20048;-74
2023/05/16 01:43:50;;;;;;;19.92;2.80;;;8.80;99.90;;;;;;5083547;28;20408;-73
2023/05/16 01:46:22;;;;;;;16.10;2.22;;;8.80;99.90;;;;;;5093170;28;20251;-74
2023/05/16 01:49:04;;;;;;;16.63;2.63;;;8.70;99.90;;;;;;5091267;28;20090;-74
2023/05/16 01:51:32;;;;;;;14.20;2.65;;;8.70;99.90;;;;;;5092552;28;20097;-74
2023/05/16 01:54:04;;;;;;;11.63;2.63;;;8.70;99.90;;;;;;5093379;28;20052;-74
2023/05/16 01:56:31;;;;;;;17.20;2.65;;;8.60;99.90;;;;;;5092284;28;20062;-73
2023/05/16 01:58:58;;;;;;;15.23;2.55;;;8.60;99.90;;;;;;5092627;28;20113;-74
2023/05/16 02:01:24;;;;;;;19.55;3.05;;;8.50;99.90;;;;;;5064093;28;20056;-74
2023/05/16 02:03:50;;;;;;;15.23;2.78;;;8.50;99.90;;;;;;5086023;28;20078;-74
2023/05/16 02:06:16;;;;;;;;;;;8.40;99.90;;;;;;5092099;28;20063;-73
2023/05/16 02:08:41;;;;;;;16.95;2.63;;;8.40;99.90;;;;;;5103513;28;20339;-74
2023/05/16 02:11:07;;;;;;;9.98;1.95;;;8.40;99.90;;;;;;5072409;28;20135;-74
2023/05/16 02:13:33;;;;;;;16.13;2.30;;;8.30;99.90;;;;;;5083336;28;20039;-74
2023/05/16 02:15:58;;;;;;;15.45;2.25;;;8.30;99.90;;;;;;5091794;28;20046;-74
2023/05/16 02:18:24;;;;;;;22.83;2.35;;;8.30;99.90;;;;;;5091334;28;20052;-74
2023/05/16 02:20:50;;;;;;;;;;;8.20;99.90;;;;;;5093464;28;20087;-74
2023/05/16 02:23:16;;;;;;;16.67;2.75;;;8.20;99.90;;;;;;5090517;28;19974;-74
2023/05/16 02:25:42;;;;;;;17.75;3.22;;;8.20;99.90;;;;;;5055573;28;20127;-74
2023/05/16 02:28:08;;;;;;;15.77;2.63;;;8.10;99.90;;;;;;5060640;28;20052;-74
2023/05/16 02:30:33;;;;;;;12.95;2.92;;;8.00;99.90;;;;;;5091845;28;20048;-74
2023/05/16 02:32:59;;;;;;;17.25;2.83;;;8.00;99.90;;;;;;5091152;28;20087;-74
2023/05/16 02:35:25;;;;;;;17.63;3.10;;;8.00;99.90;;;;;;5092793;28;20052;-74
2023/05/16 02:37:51;;;;;;;20.17;2.42;;;8.00;99.90;;;;;;5085867;28;20188;-74
2023/05/16 02:40:16;;;;;;;14.50;2.90;;;8.00;99.90;;;;;;5074504;28;20109;-73
2023/05/16 02:42:42;;;;;;;14.10;2.67;;;7.90;99.90;;;;;;5107869;28;20054;-74
2023/05/16 02:45:08;;;;;;;18.83;2.47;;;7.90;99.90;;;;;;5090488;28;20036;-74
2023/05/16 02:47:34;;;;;;;11.32;2.05;;;7.90;99.90;;;;;;5074193;28;20044;-74
2023/05/16 02:49:59;;;;;;;14.45;2.17;;;7.80;99.90;;;;;;5074738;28;20542;-74
2023/05/16 02:52:25;;;;;;;13.40;3.13;;;7.80;99.90;;;;;;5073909;28;20095;-74
2023/05/16 02:54:51;;;;;;;16.38;2.58;;;7.70;99.90;;;;;;5108104;28;20044;-74
2023/05/16 02:57:16;;;;;;;23.13;3.03;;;7.70;99.90;;;;;;5077168;28;20089;-74
2023/05/16 02:59:42;;;;;;;15.48;2.50;;;7.70;99.90;;;;;;5093846;28;20127;-74
2023/05/16 03:02:08;;;;;;;14.23;2.67;;;7.70;99.90;;;;;;5093920;28;20048;-73
2023/05/16 03:04:33;;;;;;;15.30;2.33;;;7.70;99.90;;;;;;5112713;28;20565;-74
2023/05/16 03:06:59;;;;;;;21.92;3.20;;;7.60;99.90;;;;;;5112328;28;20051;-74
2023/05/16 03:09:25;;;;;;;15.77;2.70;;;7.60;99.90;;;;;;5094069;28;20391;-74
2023/05/16 03:11:51;;;;;;;13.50;2.35;;;7.60;99.90;;;;;;5094657;28;20066;-74
2023/05/16 03:14:16;;;;;;;20.45;2.92;;;7.60;99.90;;;;;;5088674;28;20050;-74
2023/05/16 03:16:43;;;;;;;13.30;2.15;;;7.50;99.90;;;;;;5094113;28;20040;-74
2023/05/16 03:19:09;;;;;;;14.80;2.75;;;7.60;99.90;;;;;;5111513;28;20048;-74
2023/05/16 03:21:35;;;;;;;;;;;7.50;99.90;;;;;;5079765;28;20052;-74
2023/05/16 03:24:04;;;;;;;8.93;2.30;;;7.50;99.90;;;;;;5056042;28;20056;-74
2023/05/16 03:26:30;;;;;;;14.88;2.35;;;7.50;99.90;;;;;;5098369;28;20085;-74
2023/05/16 03:28:56;;;;;;;14.15;2.20;;;7.50;99.90;;;;;;5092935;28;20134;-74
2023/05/16 03:31:21;;;;;;;18.45;2.83;;;7.50;99.90;;;;;;5111174;28;20062;-74
2023/05/16 03:33:47;;;;;;;17.52;2.40;;;7.50;99.90;;;;;;5076872;28;20127;-74
2023/05/16 03:36:13;;;;;;;9.98;2.20;;;7.50;99.90;;;;;;5092541;28;20108;-74
2023/05/16 03:38:39;;;;;;;17.15;2.90;;;7.50;99.90;;;;;;5070281;28;20396;-74
2023/05/16 03:41:05;;;;;;;13.80;2.40;;;7.50;99.90;;;;;;5072848;28;20051;-74
2023/05/16 03:43:30;;;;;;;14.88;2.85;;;7.50;99.90;;;;;;5056382;28;20044;-74
2023/05/16 03:45:56;;;;;;;13.48;2.75;;;7.60;99.90;;;;;;5075014;28;20032;-74
2023/05/16 03:48:22;;;;;;;12.55;2.20;;;7.70;99.90;;;;;;5075904;28;20047;-74
2023/05/16 03:50:48;;;;;;;19.73;3.13;;;7.80;99.90;;;;;;5093520;28;20404;-74
2023/05/16 03:53:13;;;;;;;18.30;2.67;;;7.80;99.90;;;;;;5077311;28;20400;-74
2023/05/16 03:55:39;;;;;;;13.52;2.13;;;7.80;99.90;;;;;;5073400;28;20048;-74
2023/05/16 03:58:05;;;;;;;16.25;2.42;;;7.90;99.90;;;;;;5048013;28;20043;-74
2023/05/16 04:00:30;;;;;;;11.80;1.95;;;7.90;99.90;;;;;;5093677;28;20071;-73
2023/05/16 04:02:56;;;;;;;11.50;2.50;;;7.90;99.90;;;;;;5111211;28;20510;-74
2023/05/16 04:05:22;;;;;;;14.95;2.47;;;7.80;99.90;;;;;;5092334;28;20134;-74
2023/05/16 04:07:47;;;;;;;9.00;2.22;;;7.80;99.90;;;;;;5074726;28;20457;-74
2023/05/16 04:10:13;;;;;;;15.52;2.35;;;7.70;99.90;;;;;;5074620;28;20399;-74
2023/05/16 04:12:39;;;;;;;13.65;2.40;;;7.70;99.90;;;;;;5090630;28;20044;-74
2023/05/16 04:15:06;;;;;;;19.70;2.88;;;7.70;99.90;;;;;;5089818;28;20132;-74
2023/05/16 04:17:32;;;;;;;17.13;2.45;;;7.70;99.90;;;;;;5090108;28;20087;-74
2023/05/16 04:19:58;;;;;;;12.32;2.50;;;7.70;99.90;;;;;;5073239;28;20048;-74
2023/05/16 04:22:25;;;;;;;16.08;2.72;;;7.70;99.90;;;;;;5075802;28;20058;-74
2023/05/16 04:24:51;;;;;;;15.45;2.60;;;7.70;99.90;;;;;;5111338;28;20055;-74
2023/05/16 04:27:16;;;;;;;18.17;2.85;;;7.60;99.90;;;;;;5110665;28;20436;-74
2023/05/16 04:29:43;;;;;;;12.73;2.78;;;7.60;99.90;;;;;;5075539;28;20043;-74
2023/05/16 04:32:09;;;;;;;14.65;2.67;;;7.60;99.90;;;;;;5110375;28;20047;-74
2023/05/16 04:34:36;;;;;;;16.55;2.50;;;7.50;99.90;;;;;;5108146;28;20055;-74
2023/05/16 04:37:06;;;;;;;12.55;2.30;;;7.50;99.90;;;;;;5092571;28;20180;-74
2023/05/16 04:39:33;;;;;;;13.20;2.47;;;7.50;99.90;;;;;;5075959;28;20473;-74
2023/05/16 04:42:00;;;;;;;18.02;3.00;;;7.50;99.90;;;;;;5076366;28;20108;-74
2023/05/16 04:44:25;;;;;;;14.20;2.45;;;7.50;99.90;;;;;;5091407;28;20067;-74
2023/05/16 04:46:52;;;;;;;13.18;2.63;;;7.50;99.90;;;;;;5092820;28;20051;-74
2023/05/16 04:49:18;;;;;;;18.42;3.05;;;7.50;99.90;;;;;;5076806;28;20048;-74
2023/05/16 04:51:44;;;;;;;10.75;2.50;;;7.60;99.90;;;;;;5055914;28;20051;-74
2023/05/16 04:54:10;;;;;;;17.88;2.72;;;7.70;99.90;;;;;;5077803;28;20044;-74
2023/05/16 04:56:36;;;;;;;16.05;2.58;;;7.70;99.90;;;;;;5097309;28;20050;-73
2023/05/16 04:59:03;;;;;;;12.98;2.70;;;7.70;99.90;;;;;;5089699;28;20126;-74
2023/05/16 05:01:29;;;;;;;11.77;2.72;;;7.80;99.90;;;;;;5088754;28;20056;-74
2023/05/16 05:03:55;;;;;;;10.68;2.33;;;7.80;99.90;;;;;;5072318;28;20442;-73
2023/05/16 05:06:20;;;;;;;11.43;2.33;;;7.80;99.90;;;;;;5079735;28;20043;-74
2023/05/16 05:08:46;;;;;;;13.60;2.60;;;7.80;99.90;;;;;;5092833;28;20043;-73
2023/05/16 05:11:12;;;;;;;16.45;2.65;;;7.80;99.90;;;;;;5092266;28;20048;-74
2023/05/16 05:13:37;;;;;;;19.75;2.83;;;7.90;99.90;;;;;;5109799;28;20400;-74
2023/05/16 05:16:04;;;;;;;14.85;2.60;;;7.90;99.90;;;;;;5087096;28;20076;-74
2023/05/16 05:18:30;;;;;;;14.95;2.30;;;7.90;99.90;;;;;;5067763;28;20214;-74
2023/05/16 05:20:56;;;;;;;12.88;2.53;;;7.90;99.90;;;;;;5096055;28;20552;-74
2023/05/16 05:23:22;;;;;;;;;;;8.00;99.90;;;;;;5092937;28;20101;-74
2023/05/16 05:25:49;;;;;;;16.25;2.75;;;8.00;99.90;;;;;;5076098;28;19919;-74
2023/05/16 05:28:15;;;;;;;13.35;2.20;;;8.00;99.90;;;;;;5081790;28;20049;-74
2023/05/16 05:30:41;;;;;;;16.90;2.90;;;8.00;99.90;;;;;;5096705;28;20040;-74
2023/05/16 05:33:07;;;;;;;13.98;2.30;;;8.10;99.90;;;;;;5059120;28;20076;-74
2023/05/16 05:35:32;;;;;;;18.35;2.47;;;8.20;99.90;;;;;;5059081;28;20098;-73
2023/05/16 05:37:58;;;;;;;16.35;2.58;;;8.20;99.90;;;;;;5093849;28;20488;-74
2023/05/16 05:40:24;;;;;;;15.82;2.22;;;8.30;99.90;;;;;;5095764;28;20083;-74
2023/05/16 05:42:50;;;;;;;14.45;2.35;;;8.30;99.90;;;;;;5095562;28;20098;-74
2023/05/16 05:45:16;;;;;;;14.07;2.53;;;8.40;99.90;;;;;;5110236;28;20055;-74
2023/05/16 05:47:42;;;;;;;16.08;2.58;;;8.40;99.90;;;;;;5093193;28;20051;-74
2023/05/16 05:50:10;;;;;;;15.25;2.83;;;8.50;99.90;;;;;;5111649;28;20400;-74
2023/05/16 05:52:36;;;;;;;16.48;2.60;;;8.60;99.90;;;;;;5094600;28;20066;-74
2023/05/16 05:55:03;;;;;;;15.00;2.83;;;8.60;99.90;;;;;;5114208;28;20051;-74
2023/05/16 05:57:28;;;;;;;14.02;2.83;;;8.70;99.90;;;;;;5092319;28;20055;-74
2023/05/16 05:59:54;;;;;;;15.95;2.83;;;8.70;99.90;;;;;;5099720;28;20503;-74
2023/05/16 06:02:20;;;;;;;8.95;1.98;;;8.80;99.90;;;;;;5091100;28;20039;-74
2023/05/16 06:04:46;;;;;;;12.55;2.30;;;8.90;99.90;;;;;;5091707;28;20480;-74
2023/05/16 06:07:11;;;;;;;15.30;2.38;;;9.00;99.90;;;;;;5078706;28;20051;-74
2023/05/16 06:09:37;;;;;;;15.65;2.30;;;9.00;99.90;;;;;;5078579;28;20489;-74
2023/05/16 06:12:03;;;;;;;17.45;2.58;;;9.00;99.90;;;;;;5093190;28;20560;-74
2023/05/16 06:14:29;;;;;;;13.77;2.30;;;9.00;99.90;;;;;;5057130;28;20083;-74
2023/05/16 06:16:55;;;;;;;16.75;3.08;;;9.00;99.90;;;;;;5071640;28;20105;-76
2023/05/16 06:19:21;;;;;;;9.70;2.40;;;9.10;99.90;;;;;;5095224;28;20121;-77
2023/05/16 06:21:46;;;;;;;8.90;2.35;;;9.20;99.90;;;;;;5092518;28;20074;-71
2023/05/16 06:24:15;;;;;;;14.80;2.03;;;9.30;99.90;;;;;;5074907;28;20552;-73
2023/05/16 06:26:40;;;;;;;9.23;1.85;;;9.50;99.90;;;;;;5108809;28;20040;-72
2023/05/16 06:29:06;;;;;;;17.52;2.05;;;9.50;99.90;;;;;;5057147;28;20052;-71
2023/05/16 06:31:32;;;;;;;10.57;2.25;;;9.50;99.90;;;;;;5108129;28;20051;-71
2023/05/16 06:33:57;;;;;;;13.88;2.30;;;9.60;99.90;;;;;;5074731;28;20083;-70
2023/05/16 06:36:23;;;;;;;9.70;2.30;;;9.50;99.90;;;;;;5107570;28;20059;-70
2023/05/16 06:38:49;;;;;;;13.35;2.55;;;9.60;99.90;;;;;;5119441;27;20079;-70
2023/05/16 06:41:15;;;;;;;;;;;9.60;99.90;;;;;;5080973;28;20056;-74
2023/05/16 06:43:41;;;;;;;11.20;1.80;;;9.70;99.90;;;;;;5091803;28;19985;-70
2023/05/16 06:46:06;;;;;;;12.57;2.10;;;9.70;99.90;;;;;;5074480;28;20131;-70
2023/05/16 06:48:32;;;;;;;7.80;1.98;;;9.80;99.90;;;;;;5069897;28;20079;-70
2023/05/16 06:50:58;;;;;;;11.45;1.95;;;9.90;99.90;;;;;;5094728;28;20097;-70
2023/05/16 06:53:23;;;;;;;12.40;2.00;;;10.00;99.90;;;;;;5094475;28;20040;-70
2023/05/16 06:55:50;;;;;;;8.98;2.00;;;10.10;99.90;;;;;;5111860;28;20096;-70
2023/05/16 06:58:15;;;;;;;10.32;1.90;;;10.20;99.90;;;;;;5082747;28;20131;-74
2023/05/16 07:00:42;;;;;;;8.70;1.70;;;10.20;99.90;;;;;;5099506;28;20131;-71
2023/05/16 07:03:08;;;;;;;13.63;2.20;;;10.30;99.90;;;;;;5094340;28;20081;-70
2023/05/16 07:05:34;;;;;;;7.97;1.88;;;10.30;99.90;;;;;;5110932;28;20051;-70
2023/05/16 07:08:00;;;;;;;8.95;1.98;;;10.30;99.90;;;;;;5111070;27;20495;-70
2023/05/16 07:10:26;;;;;;;10.55;1.90;;;10.30;99.90;;;;;;5090572;28;20056;-70
2023/05/16 07:12:51;;;;;;;26.08;3.33;;;10.30;99.90;;;;;;5091533;28;20056;-70
2023/05/16 07:15:17;;;;;;;9.55;1.90;;;10.40;99.90;;;;;;5090208;28;20054;-75
2023/05/16 07:17:43;;;;;;;11.95;2.25;;;10.50;99.90;;;;;;5103787;28;20511;-71
2023/05/16 07:20:12;;;;;;;11.25;1.98;;;10.60;99.90;;;;;;5091538;28;20054;-72
2023/05/16 07:22:38;;;;;;;16.00;1.90;;;10.70;99.90;;;;;;5127723;27;20172;-71
2023/05/16 07:25:04;;;;;;;7.78;1.73;;;10.90;99.90;;;;;;5094217;28;20048;-71
2023/05/16 07:27:30;;;;;;;;;;;11.10;99.90;;;;;;5040307;28;20063;-75
2023/05/16 07:29:56;;;;;;;9.05;1.95;;;11.30;99.90;;;;;;5109419;27;19963;-74
2023/05/16 07:32:22;;;;;;;8.10;1.98;;;11.30;99.90;;;;;;5101907;28;20051;-75
2023/05/16 07:34:48;;;;;;;7.30;2.03;;;11.20;99.90;;;;;;5079749;28;20096;-74
2023/05/16 07:37:15;;;;;;;5.35;1.45;;;11.10;99.90;;;;;;5075111;28;20083;-74
2023/05/16 07:39:41;;;;;;;4.13;1.30;;;11.00;99.90;;;;;;5088002;28;20100;-74
2023/05/16 07:42:08;;;;;;;5.97;1.60;;;10.90;99.90;;;;;;5074775;28;20097;-74
2023/05/16 07:44:34;;;;;;;5.35;1.10;;;10.90;99.90;;;;;;5070555;28;20485;-74
2023/05/16 07:47:00;;;;;;;4.85;1.13;;;10.70;99.90;;;;;;5072321;28;20070;-81
2023/05/16 07:49:26;;;;;;;5.50;1.35;;;10.70;99.90;;;;;;5070528;28;20051;-74
2023/05/16 07:51:52;;;;;;;4.93;1.15;;;10.70;99.90;;;;;;5081956;28;20040;-75
2023/05/16 07:54:17;;;;;;;6.88;1.25;;;10.60;99.90;;;;;;5106237;28;20617;-75
2023/05/16 07:56:43;;;;;;;8.55;1.25;;;10.70;99.90;;;;;;5087282;28;20131;-75
2023/05/16 07:59:09;;;;;;;5.70;1.10;;;10.70;99.90;;;;;;5073039;28;20048;-75
2023/05/16 08:01:35;;;;;;;6.18;1.50;;;10.70;99.90;;;;;;5073737;28;20051;-75
2023/05/16 08:04:02;;;;;;;8.55;1.33;;;10.80;99.90;;;;;;5073568;28;20055;-75
2023/05/16 08:06:28;;;;;;;8.27;1.40;;;10.90;99.90;;;;;;5084143;28;20432;-75
2023/05/16 08:08:54;;;;;;;4.53;1.20;;;11.00;99.90;;;;;;5105323;27;20054;-75
2023/05/16 08:11:21;;;;;;;;;;;11.10;99.90;;;;;;5073058;28;20611;-75
2023/05/16 08:13:47;;;;;;;6.93;1.60;;;11.20;99.90;;;;;;5081097;28;20350;-75
2023/05/16 08:16:13;;;;;;;;;;;11.20;99.90;;;;;;5084654;28;20305;-75
2023/05/16 08:18:38;;;;;;;8.55;1.52;;;11.30;99.90;;;;;;5090659;28;19919;-75
2023/05/16 08:21:04;;;;;;;8.57;1.52;;;11.40;99.90;;;;;;5075337;28;20043;-75
2023/05/16 08:23:30;;;;;;;7.15;1.20;;;11.50;99.90;;;;;;5045539;28;20079;-75
2023/05/16 08:25:56;;;;;;;5.25;1.30;;;11.60;99.90;;;;;;5056458;28;20043;-75
2023/05/16 08:28:21;;;;;;;7.05;1.20;;;11.60;99.90;;;;;;5091545;28;20044;-75
2023/05/16 08:30:47;;;;;;;9.63;1.55;;;11.70;99.90;;;;;;5081792;28;20047;-75
2023/05/16 08:33:13;;;;;;;4.35;1.42;;;11.70;99.90;;;;;;5091969;28;20409;-75
2023/05/16 08:35:42;;;;;;;4.45;1.40;;;11.80;99.90;;;;;;5070129;28;20138;-75
2023/05/16 08:38:08;;;;;;;6.95;1.38;;;12.00;99.90;;;;;;5089234;28;20059;-75
2023/05/16 08:40:34;;;;;;;13.10;3.35;;;12.10;99.90;;;;;;5088795;28;20048;-75
2023/05/16 08:43:00;;;;;;;6.78;2.22;;;12.30;99.90;;;;;;5088416;28;20210;-75
2023/05/16 08:45:27;;;;;;;8.20;1.48;;;12.40;99.90;;;;;;5088547;28;20133;-78
2023/05/16 08:47:59;;;;;;;6.60;1.48;;;12.50;99.90;;;;;;5051708;28;20056;-75
2023/05/16 08:50:28;;;;;;;9.15;1.73;;;12.50;99.90;;;;;;5065494;28;20100;-74
2023/05/16 08:52:53;;;;;;;8.75;1.40;;;12.50;99.90;;;;;;5083608;28;20052;-76
2023/05/16 08:55:23;;;;;;;8.10;1.48;;;12.40;99.90;;;;;;5085886;28;20075;-71
2023/05/16 08:57:52;;;;;;;11.05;1.40;;;12.40;99.90;;;;;;5084541;28;20740;-70
2023/05/16 09:00:19;;;;;;;8.00;1.50;;;12.20;99.90;;;;;;5072629;28;20485;-69
2023/05/16 09:02:45;;;;;;;6.28;1.50;;;12.10;99.90;;;;;;5079965;28;20561;-71
2023/05/16 09:05:11;;;;;;;;;;;12.10;99.90;;;;;;5090024;28;20496;-73
2023/05/16 09:07:37;;;;;;;5.72;1.33;;;12.10;99.90;;;;;;5075426;28;20276;-69
2023/05/16 09:10:05;;;;;;;10.13;1.80;;;12.20;99.90;;;;;;5093533;28;20040;-69
2023/05/16 09:12:32;;;;;;;4.45;1.27;;;12.30;99.90;;;;;;5093545;28;20160;-76
2023/05/16 09:15:01;;;;;;;9.45;1.77;;;12.40;99.90;;;;;;5091038;28;20055;-70
2023/05/16 09:17:39;;;;;;;8.45;1.20;;;12.50;99.90;;;;;;5072509;28;20063;-71
2023/05/16 09:20:14;;;;;;;6.80;1.45;;;12.70;99.90;;;;;;5087327;28;20106;-72
2023/05/16 09:22:49;;;;;;;8.70;1.85;;;13.00;99.90;;;;;;5072001;28;20052;-70
2023/05/16 09:25:19;;;;;;;7.60;1.67;;;13.10;99.90;;;;;;5089964;28;20423;-70
2023/05/16 09:27:55;;;;;;;7.35;1.63;;;13.10;99.90;;;;;;5088310;28;20055;-70
2023/05/16 09:30:25;;;;;;;10.70;1.70;;;13.10;99.90;;;;;;5072397;28;20056;-70
2023/05/16 09:32:52;;;;;;;8.52;1.33;;;13.00;99.90;;;;;;5079495;28;20048;-72
2023/05/16 09:35:20;;;;;;;9.30;1.60;;;13.00;99.90;;;;;;5093396;28;20438;-74
2023/05/16 09:37:52;;;;;;;6.25;1.42;;;13.00;99.90;;;;;;5066122;28;20623;-73
2023/05/16 09:40:21;;;;;;;7.20;1.55;;;13.00;99.90;;;;;;5079252;28;20043;-73
2023/05/16 09:42:52;;;;;;;5.18;1.30;;;13.00;99.90;;;;;;5074775;28;20507;-73
2023/05/16 09:45:18;;;;;;;9.18;1.50;;;13.10;99.90;;;;;;5079166;28;20054;-75
2023/05/16 09:47:45;;;;;;;5.82;1.25;;;13.10;99.90;;;;;;5097178;28;20044;-75
2023/05/16 09:50:14;;;;;;;8.95;1.40;;;13.10;99.90;;;;;;5114958;27;20059;-76
2023/05/16 09:52:40;;;;;;;8.30;1.60;;;13.30;99.90;;;;;;5085723;28;20047;-81
2023/05/16 09:55:07;;;;;;;;;;;13.20;99.90;;;;;;5093083;28;20056;-77
2023/05/16 09:57:37;;;;;;;7.07;1.50;;;13.20;99.90;;;;;;5057866;28;20480;-77
2023/05/16 10:00:07;;;;;;;7.35;1.40;;;13.20;99.90;;;;;;5074860;28;20991;-78
2023/05/16 10:02:34;;;;;;;6.05;1.40;;;13.20;99.90;;;;;;5073689;28;20056;-77
2023/05/16 10:05:00;;;;;;;7.20;1.38;;;13.20;99.90;;;;;;5058079;28;20055;-78
2023/05/16 10:07:27;;;;;;;7.70;1.55;;;13.20;99.90;;;;;;5092089;28;20048;-78
2023/05/16 10:09:53;;;;;;;9.90;1.40;;;13.20;99.90;;;;;;5108241;27;20145;-77
2023/05/16 10:12:20;;;;;;;;;;;13.10;99.90;;;;;;5083273;28;20040;-77
2023/05/16 10:14:49;;;;;;;10.60;1.60;;;13.10;99.90;;;;;;5091057;28;19928;-77
2023/05/16 10:17:15;;;;;;;6.20;1.30;;;13.10;99.90;;;;;;5094962;28;20047;-77
2023/05/16 10:19:41;;;;;;;8.38;1.33;;;13.30;99.90;;;;;;5077628;28;20100;-77
2023/05/16 10:22:10;;;;;;;6.80;1.65;;;13.40;99.90;;;;;;5078115;28;20044;-77
2023/05/16 10:24:47;;;;;;;7.32;1.58;;;13.60;99.90;;;;;;5078062;28;20055;-76
2023/05/16 10:27:14;;;;;;;5.35;1.40;;;13.80;99.90;;;;;;5095139;28;20086;-77
2023/05/16 10:29:42;;;;;;;8.18;1.90;;;14.10;99.90;;;;;;5090363;28;20436;-76
2023/05/16 10:32:09;;;;;;;7.97;1.20;;;14.30;99.90;;;;;;5093653;28;20108;-77
2023/05/16 10:34:35;;;;;;;6.15;1.50;;;14.50;99.90;;;;;;5071670;28;20047;-76
2023/05/16 10:37:02;;;;;;;8.88;1.52;;;14.50;99.90;;;;;;5094431;28;20055;-77
2023/05/16 10:39:28;;;;;;;7.00;1.48;;;14.50;99.90;;;;;;5088306;28;20123;-76
2023/05/16 10:41:55;;;;;;;11.57;1.70;;;14.40;99.90;;;;;;5094787;28;20188;-79
2023/05/16 10:44:21;;;;;;;6.30;1.20;;;14.30;99.90;;;;;;5084622;28;20131;-80
2023/05/16 10:46:47;;;;;;;4.13;1.40;;;14.10;99.90;;;;;;5092357;28;20123;-79
2023/05/16 10:49:30;;;;;;;;;;;13.80;99.90;;;;;;5074621;28;20055;-78
2023/05/16 10:52:08;;;;;;;7.35;1.63;;;13.60;99.90;;;;;;5124574;27;20010;-80
2023/05/16 10:54:39;;;;;;;6.78;1.35;;;13.60;99.90;;;;;;5067966;28;20054;-81
2023/05/16 10:57:19;;;;;;;10.02;1.60;;;13.60;99.90;;;;;;5121032;27;20534;-82
2023/05/16 10:59:47;;;;;;;8.20;1.30;;;13.70;99.90;;;;;;5079869;28;20050;-81
2023/05/16 11:02:38;;;;;;;9.95;1.70;;;13.80;99.90;;;;;;5092688;28;20055;-80
2023/05/16 11:05:05;;;;;;;6.07;1.30;;;13.90;99.90;;;;;;5111863;27;20050;-81
2023/05/16 11:07:33;;;;;;;9.90;1.73;;;14.10;99.90;;;;;;5095257;28;20043;-79
2023/05/16 11:10:08;;;;;;;10.23;1.92;;;14.30;99.90;;;;;;5111483;28;20040;-81
2023/05/16 11:12:37;;;;;;;8.73;1.38;;;14.60;99.90;;;;;;5077037;28;20092;-80
2023/05/16 11:15:20;;;;;;;4.20;1.38;;;14.70;99.90;;;;;;5082114;28;20159;-82
2023/05/16 11:17:46;;;;;;;5.43;1.48;;;14.60;98.40;;;;;;5075018;28;20055;-78
2023/05/16 11:20:33;;;;;;;6.57;1.20;;;14.50;99.90;;;;;;5076278;28;20051;-81
2023/05/16 11:23:17;;;;;;;;;;;14.40;96.50;;;;;;5093483;28;20054;-81
2023/05/16 11:25:50;;;;;;;8.07;1.25;;;14.40;96.70;;;;;;5086717;28;19927;-80
2023/05/16 11:28:18;;;;;;;5.15;1.33;;;14.60;99.90;;;;;;5110086;27;20048;-80
2023/05/16 11:30:50;;;;;;;6.53;1.38;;;15.00;99.90;;;;;;5065050;28;20086;-81
2023/05/16 11:33:16;;;;;;;9.35;1.50;;;15.50;97.30;;;;;;5076533;28;20048;-84
2023/05/16 11:35:43;;;;;;;6.13;1.50;;;16.00;95.70;;;;;;5085128;28;20081;-80
2023/05/16 11:38:15;;;;;;;9.57;1.73;;;16.60;96.10;;;;;;5069787;28;20056;-80
2023/05/16 11:40:44;;;;;;;9.27;1.80;;;17.20;93.20;;;;;;5106589;28;20044;-76
2023/05/16 11:43:11;;;;;;;8.65;1.52;;;17.20;89.10;;;;;;5081701;28;20039;-81
2023/05/16 11:45:36;;;;;;;9.00;1.25;;;17.00;92.90;;;;;;5079808;28;20054;-82
2023/05/16 11:48:03;;;;;;;4.50;1.40;;;17.10;92.90;;;;;;5109484;28;20048;-81
2023/05/16 11:50:29;;;;;;;5.38;1.35;;;17.30;92.50;;;;;;5092989;28;20061;-81
2023/05/16 11:52:58;;;;;;;7.57;1.67;;;17.80;94.00;;;;;;5093090;28;20173;-80
2023/05/16 11:55:26;;;;;;;7.75;1.60;;;18.30;92.00;;;;;;5111303;28;20044;-80
2023/05/16 11:57:53;;;;;;;5.25;1.60;;;18.60;88.30;;;;;;5078086;28;20055;-81
2023/05/16 12:00:21;;;;;;;5.65;1.50;;;18.50;85.40;;;;;;5072645;28;20177;-79
2023/05/16 12:02:51;;;;;;;4.85;1.50;;;18.40;78.20;;;;;;5100644;28;20089;-78
2023/05/16 12:05:19;;;;;;;4.05;1.45;;;18.30;78.30;;;;;;5046656;28;20075;-78
2023/05/16 12:07:46;;;;;;;5.63;1.52;;;18.40;77.30;;;;;;5092934;28;20039;-75
2023/05/16 12:10:13;;;;;;;8.75;1.73;;;18.20;74.70;;;;;;5093360;28;20042;-78
2023/05/16 12:12:41;;;;;;;5.20;1.52;;;18.30;73.20;;;;;;5092810;28;20077;-79
2023/05/16 12:15:08;;;;;;;5.47;1.58;;;18.10;70.80;;;;;;5110016;28;20054;-79
2023/05/16 12:17:39;;;;;;;4.65;1.50;;;18.00;69.90;;;;;;5074701;28;20391;-79
2023/05/16 12:20:06;;;;;;;6.35;1.83;;;17.70;69.30;;;;;;5092066;28;20035;-78
2023/05/16 12:22:37;;;;;;;7.03;1.67;;;17.40;71.00;;;;;;5061929;28;20408;-78
2023/05/16 12:25:32;;;;;;;7.53;1.73;;;17.10;69.20;;;;;;5082577;28;20062;-78
2023/05/16 12:28:02;;;;;;;7.13;1.98;;;16.70;67.00;;;;;;5075234;28;20039;-79
2023/05/16 12:30:30;;;;;;;5.97;1.80;;;16.20;67.70;;;;;;5090080;28;20082;-79
2023/05/16 12:33:13;;;;;;;7.57;2.15;;;15.80;70.70;;;;;;5091187;28;20120;-78
2023/05/16 12:35:41;;;;;;;10.80;2.13;;;15.50;74.00;;;;;;5091770;28;20130;-78
2023/05/16 12:38:11;;;;;;;8.18;2.05;;;15.40;76.70;;;;;;5054383;28;21559;-80
2023/05/16 12:40:40;;;;;;;11.18;1.85;;;15.10;82.30;;;;;;5055616;28;20044;-79
2023/05/16 12:43:19;;;;;;;12.23;2.00;;;15.00;88.60;;;;;;5071014;28;20043;-78
2023/05/16 12:45:53;;;;;;;6.00;2.15;;;15.00;96.00;;;;;;5102504;28;20052;-79
2023/05/16 12:48:20;;;;;;;8.52;2.13;;;15.30;95.40;;;;;;5086656;28;20543;-79
2023/05/16 12:50:45;;;;;;;10.00;2.00;;;15.80;95.50;;;;;;5062604;28;20079;-79
2023/05/16 12:53:13;;;;;;;8.95;1.88;;;16.00;94.20;;;;;;5065461;28;20087;-79